PWSweather.com
Personal Weather Stations
Station Observations
RODOLIVOS
Serres, Rodolivos SerresGR 62041

SerresRodolivos SerresGR 62041

Lat: 40.920725, Lon: 23.975814

Elevation: 1161

Station Type: Davis Vantage Vue

http://rodolivos-weather.gr/

High Low Average
Temperature 50.1°F10.1°C 33.8°F1.0°C 42.2°F5.7°C
Dew Point 32.8°F0.4°C 24.3°F-4.3°C 29.2°F-1.6°C
Winds 4.6 mph 7.4 kmh Calm Calm 1.0 mph S1.6 kmh S
Wind Gusts 8.1 mph13.0 kmh -- 2.0 mph3.2 kmh
Humidity 77% 46% 61%
Pressure 30.40 in1029.5 mb 30.32 in1026.8 mb -
Precipitation 0.00 in0.0 mm - -
Hour Temp Dew Point Humidity Winds Wind Gusts Pressure Precip Precip Rate Daily Precip Total
07:30 AM 36.1°F2.3°C 24.3°F-4.3°C 62% Calm Calm 2.3 mph3.7 kmh 30.36 in1028.1 mb - 0.00 in0.0 mm 0.00 in0.0 mm
07:40 AM 35.4°F1.9°C 24.4°F-4.2°C 64% 1.2 mph NW1.9 kmh NW 2.3 mph3.7 kmh 30.36 in1028.1 mb - 0.00 in0.0 mm 0.00 in0.0 mm
07:50 AM 34.3°F1.3°C 24.8°F-4.0°C 68% Calm Calm 1.2 mph1.9 kmh 30.36 in1028.1 mb - 0.00 in0.0 mm 0.00 in0.0 mm
08:00 AM 34.0°F1.1°C 24.9°F-3.9°C 69% 1.2 mph S1.9 kmh S 2.3 mph3.7 kmh 30.37 in1028.4 mb - 0.00 in0.0 mm 0.00 in0.0 mm
08:10 AM 33.9°F1.1°C 24.8°F-4.0°C 69% Calm Calm 1.2 mph1.9 kmh 30.37 in1028.4 mb - 0.00 in0.0 mm 0.00 in0.0 mm
08:20 AM 33.8°F1.0°C 25.0°F-3.9°C 70% Calm Calm -- 30.38 in1028.8 mb - 0.00 in0.0 mm 0.00 in0.0 mm
08:30 AM 35.0°F1.7°C 26.2°F-3.2°C 70% Calm Calm -- 30.38 in1028.8 mb - 0.00 in0.0 mm 0.00 in0.0 mm
08:40 AM 37.1°F2.8°C 26.7°F-2.9°C 66% Calm Calm 2.3 mph3.7 kmh 30.39 in1029.1 mb - 0.00 in0.0 mm 0.00 in0.0 mm
08:50 AM 38.2°F3.4°C 26.7°F-2.9°C 63% 1.2 mph S1.9 kmh S 3.5 mph5.6 kmh 30.39 in1029.1 mb - 0.00 in0.0 mm 0.00 in0.0 mm
09:00 AM 38.8°F3.8°C 26.5°F-3.1°C 61% 2.3 mph SE3.7 kmh SE 3.5 mph5.6 kmh 30.39 in1029.1 mb - 0.00 in0.0 mm 0.00 in0.0 mm
09:10 AM 39.7°F4.3°C 27.3°F-2.6°C 61% 1.2 mph S1.9 kmh S 3.5 mph5.6 kmh 30.39 in1029.1 mb - 0.00 in0.0 mm 0.00 in0.0 mm
09:20 AM 40.4°F4.7°C 27.6°F-2.4°C 60% Calm Calm 3.5 mph5.6 kmh 30.40 in1029.5 mb - 0.00 in0.0 mm 0.00 in0.0 mm
09:30 AM 40.8°F4.9°C 27.6°F-2.4°C 59% 1.2 mph S1.9 kmh S 2.3 mph3.7 kmh 30.39 in1029.1 mb - 0.00 in0.0 mm 0.00 in0.0 mm
09:40 AM 41.1°F5.1°C 27.4°F-2.6°C 58% 2.3 mph S3.7 kmh S 4.6 mph7.4 kmh 30.39 in1029.1 mb - 0.00 in0.0 mm 0.00 in0.0 mm
09:50 AM 40.8°F4.9°C 27.6°F-2.4°C 59% 1.2 mph SE1.9 kmh SE 3.5 mph5.6 kmh 30.39 in1029.1 mb - 0.00 in0.0 mm 0.00 in0.0 mm
10:00 AM 41.5°F5.3°C 28.2°F-2.1°C 59% 1.2 mph NW1.9 kmh NW 3.5 mph5.6 kmh 30.39 in1029.1 mb - 0.00 in0.0 mm 0.00 in0.0 mm
10:10 AM 41.8°F5.4°C 28.1°F-2.2°C 58% 1.2 mph NE1.9 kmh NE 3.5 mph5.6 kmh 30.39 in1029.1 mb - 0.00 in0.0 mm 0.00 in0.0 mm
10:20 AM 42.1°F5.6°C 27.9°F-2.3°C 57% 1.2 mph NW1.9 kmh NW 4.6 mph7.4 kmh 30.39 in1029.1 mb - 0.00 in0.0 mm 0.00 in0.0 mm
10:30 AM 42.6°F5.9°C 28.4°F-2.0°C 57% Calm Calm 2.3 mph3.7 kmh 30.39 in1029.1 mb - 0.00 in0.0 mm 0.00 in0.0 mm
10:40 AM 43.8°F6.6°C 28.7°F-1.8°C 55% 1.2 mph NW1.9 kmh NW 3.5 mph5.6 kmh 30.40 in1029.5 mb - 0.00 in0.0 mm 0.00 in0.0 mm
10:50 AM 44.0°F6.7°C 28.4°F-2.0°C 54% 2.3 mph SSE3.7 kmh SSE 2.3 mph3.7 kmh 30.40 in1029.5 mb - 0.00 in0.0 mm 0.00 in0.0 mm
11:00 AM 44.5°F6.9°C 28.9°F-1.7°C 54% 2.3 mph SE3.7 kmh SE 4.6 mph7.4 kmh 30.40 in1029.5 mb - 0.00 in0.0 mm 0.00 in0.0 mm
11:10 AM 45.4°F7.4°C 28.8°F-1.8°C 52% Calm Calm 3.5 mph5.6 kmh 30.40 in1029.5 mb - 0.00 in0.0 mm 0.00 in0.0 mm
11:20 AM 46.8°F8.2°C 28.6°F-1.9°C 49% Calm Calm 1.2 mph1.9 kmh 30.39 in1029.1 mb - 0.00 in0.0 mm 0.00 in0.0 mm
11:30 AM 47.5°F8.6°C 29.3°F-1.5°C 49% Calm Calm 2.3 mph3.7 kmh 30.39 in1029.1 mb - 0.00 in0.0 mm 0.00 in0.0 mm
11:40 AM 47.1°F8.4°C 29.4°F-1.4°C 50% 2.3 mph SSW3.7 kmh SSW 3.5 mph5.6 kmh 30.39 in1029.1 mb - 0.00 in0.0 mm 0.00 in0.0 mm
11:50 AM 47.3°F8.5°C 29.1°F-1.6°C 49% 1.2 mph SW1.9 kmh SW 3.5 mph5.6 kmh 30.39 in1029.1 mb - 0.00 in0.0 mm 0.00 in0.0 mm
12:00 PM 47.4°F8.6°C 28.6°F-1.9°C 48% Calm Calm 2.3 mph3.7 kmh 30.38 in1028.8 mb - 0.00 in0.0 mm 0.00 in0.0 mm
12:10 PM 47.8°F8.8°C 29.0°F-1.7°C 48% 1.2 mph NNW1.9 kmh NNW 3.5 mph5.6 kmh 30.38 in1028.8 mb - 0.00 in0.0 mm 0.00 in0.0 mm
12:20 PM 47.9°F8.8°C 29.1°F-1.6°C 48% 2.3 mph SE3.7 kmh SE 3.5 mph5.6 kmh 30.38 in1028.8 mb - 0.00 in0.0 mm 0.00 in0.0 mm
12:30 PM 48.3°F9.1°C 29.5°F-1.4°C 48% Calm Calm 1.2 mph1.9 kmh 30.37 in1028.4 mb - 0.00 in0.0 mm 0.00 in0.0 mm
12:40 PM 48.0°F8.9°C 29.2°F-1.6°C 48% 2.3 mph S3.7 kmh S 3.5 mph5.6 kmh 30.37 in1028.4 mb - 0.00 in0.0 mm 0.00 in0.0 mm
12:50 PM 48.1°F8.9°C 29.3°F-1.5°C 48% 2.3 mph W3.7 kmh W 3.5 mph5.6 kmh 30.37 in1028.4 mb - 0.00 in0.0 mm 0.00 in0.0 mm
01:00 PM 48.4°F9.1°C 29.1°F-1.6°C 47% 1.2 mph NW1.9 kmh NW 3.5 mph5.6 kmh 30.37 in1028.4 mb - 0.00 in0.0 mm 0.00 in0.0 mm
01:10 PM 49.2°F9.6°C 29.8°F-1.2°C 47% 1.2 mph SW1.9 kmh SW 3.5 mph5.6 kmh 30.36 in1028.1 mb - 0.00 in0.0 mm 0.00 in0.0 mm
01:20 PM 49.1°F9.5°C 29.7°F-1.3°C 47% 1.2 mph WNW1.9 kmh WNW 2.3 mph3.7 kmh 30.36 in1028.1 mb - 0.00 in0.0 mm 0.00 in0.0 mm
01:30 PM 49.3°F9.6°C 29.4°F-1.4°C 46% Calm Calm 2.3 mph3.7 kmh 30.36 in1028.1 mb - 0.00 in0.0 mm 0.00 in0.0 mm
01:40 PM 49.6°F9.8°C 29.7°F-1.3°C 46% 2.3 mph W3.7 kmh W 4.6 mph7.4 kmh 30.36 in1028.1 mb - 0.00 in0.0 mm 0.00 in0.0 mm
01:50 PM 49.7°F9.8°C 29.7°F-1.3°C 46% Calm Calm 1.2 mph1.9 kmh 30.35 in1027.8 mb - 0.00 in0.0 mm 0.00 in0.0 mm
02:00 PM 49.8°F9.9°C 30.3°F-0.9°C 47% 1.2 mph NW1.9 kmh NW 4.6 mph7.4 kmh 30.34 in1027.4 mb - 0.00 in0.0 mm 0.00 in0.0 mm
02:10 PM 50.1°F10.1°C 30.6°F-0.8°C 47% Calm Calm 1.2 mph1.9 kmh 30.34 in1027.4 mb - 0.00 in0.0 mm 0.00 in0.0 mm
02:20 PM 49.7°F9.8°C 30.8°F-0.7°C 48% 1.2 mph S1.9 kmh S 3.5 mph5.6 kmh 30.34 in1027.4 mb - 0.00 in0.0 mm 0.00 in0.0 mm
02:30 PM 50.0°F10.0°C 31.1°F-0.5°C 48% 3.5 mph SW5.6 kmh SW 5.8 mph9.3 kmh 30.34 in1027.4 mb - 0.00 in0.0 mm 0.00 in0.0 mm
02:40 PM 49.5°F9.7°C 30.6°F-0.8°C 48% Calm Calm 1.2 mph1.9 kmh 30.34 in1027.4 mb - 0.00 in0.0 mm 0.00 in0.0 mm
02:50 PM 49.0°F9.4°C 31.7°F-0.2°C 51% 2.3 mph WNW3.7 kmh WNW 4.6 mph7.4 kmh 30.34 in1027.4 mb - 0.00 in0.0 mm 0.00 in0.0 mm
03:00 PM 48.8°F9.3°C 31.9°F-0.1°C 52% 4.6 mph S7.4 kmh S 8.1 mph13.0 kmh 30.34 in1027.4 mb - 0.00 in0.0 mm 0.00 in0.0 mm
03:10 PM 48.3°F9.1°C 32.4°F0.2°C 54% 1.2 mph S1.9 kmh S 4.6 mph7.4 kmh 30.33 in1027.1 mb - 0.00 in0.0 mm 0.00 in0.0 mm
03:20 PM 48.3°F9.1°C 32.4°F0.2°C 54% 2.3 mph NW3.7 kmh NW 3.5 mph5.6 kmh 30.34 in1027.4 mb - 0.00 in0.0 mm 0.00 in0.0 mm
03:30 PM 48.1°F8.9°C 32.7°F0.4°C 55% 2.3 mph SSE3.7 kmh SSE 3.5 mph5.6 kmh 30.34 in1027.4 mb - 0.00 in0.0 mm 0.00 in0.0 mm
03:40 PM 47.7°F8.7°C 32.8°F0.4°C 56% 1.2 mph NNW1.9 kmh NNW 3.5 mph5.6 kmh 30.34 in1027.4 mb - 0.00 in0.0 mm 0.00 in0.0 mm
03:50 PM 47.7°F8.7°C 32.8°F0.4°C 56% 2.3 mph SE3.7 kmh SE 6.9 mph11.1 kmh 30.34 in1027.4 mb - 0.00 in0.0 mm 0.00 in0.0 mm
04:00 PM 47.5°F8.6°C 32.6°F0.3°C 56% 2.3 mph WNW3.7 kmh WNW 3.5 mph5.6 kmh 30.34 in1027.4 mb - 0.00 in0.0 mm 0.00 in0.0 mm
04:10 PM 47.5°F8.6°C 32.6°F0.3°C 56% 1.2 mph S1.9 kmh S 4.6 mph7.4 kmh 30.33 in1027.1 mb - 0.00 in0.0 mm 0.00 in0.0 mm
04:20 PM 47.3°F8.5°C 31.9°F-0.1°C 55% Calm Calm 1.2 mph1.9 kmh 30.33 in1027.1 mb - 0.00 in0.0 mm 0.00 in0.0 mm
04:30 PM 47.3°F8.5°C 32.4°F0.2°C 56% Calm Calm 3.5 mph5.6 kmh 30.33 in1027.1 mb - 0.00 in0.0 mm 0.00 in0.0 mm
04:40 PM 47.0°F8.3°C 31.7°F-0.2°C 55% Calm Calm 1.2 mph1.9 kmh 30.33 in1027.1 mb - 0.00 in0.0 mm 0.00 in0.0 mm
04:50 PM 46.7°F8.2°C 31.3°F-0.4°C 55% Calm Calm -- 30.33 in1027.1 mb - 0.00 in0.0 mm 0.00 in0.0 mm
05:00 PM 46.4°F8.0°C 31.1°F-0.5°C 55% Calm Calm 1.2 mph1.9 kmh 30.33 in1027.1 mb - 0.00 in0.0 mm 0.00 in0.0 mm
05:10 PM 46.0°F7.8°C 30.7°F-0.7°C 55% 1.2 mph NW1.9 kmh NW 1.2 mph1.9 kmh 30.33 in1027.1 mb - 0.00 in0.0 mm 0.00 in0.0 mm
05:20 PM 45.6°F7.6°C 30.4°F-0.9°C 55% Calm Calm -- 30.32 in1026.8 mb - 0.00 in0.0 mm 0.00 in0.0 mm
05:30 PM 45.2°F7.3°C 30.4°F-0.9°C 56% Calm Calm 1.2 mph1.9 kmh 30.32 in1026.8 mb - 0.00 in0.0 mm 0.00 in0.0 mm
05:40 PM 44.6°F7.0°C 29.9°F-1.2°C 56% Calm Calm -- 30.33 in1027.1 mb - 0.00 in0.0 mm 0.00 in0.0 mm
05:50 PM 44.0°F6.7°C 30.6°F-0.8°C 59% Calm Calm -- 30.33 in1027.1 mb - 0.00 in0.0 mm 0.00 in0.0 mm
07:10 PM 38.9°F3.8°C 30.3°F-0.9°C 71% Calm Calm -- 30.35 in1027.8 mb - 0.00 in0.0 mm 0.00 in0.0 mm
07:20 PM 38.1°F3.4°C 30.2°F-1.0°C 73% Calm Calm -- 30.35 in1027.8 mb - 0.00 in0.0 mm 0.00 in0.0 mm
07:30 PM 37.4°F3.0°C 29.9°F-1.2°C 74% Calm Calm -- 30.35 in1027.8 mb - 0.00 in0.0 mm 0.00 in0.0 mm
07:40 PM 36.9°F2.7°C 29.7°F-1.3°C 75% Calm Calm -- 30.35 in1027.8 mb - 0.00 in0.0 mm 0.00 in0.0 mm
07:50 PM 36.4°F2.4°C 29.9°F-1.2°C 77% Calm Calm -- 30.35 in1027.8 mb - 0.00 in0.0 mm 0.00 in0.0 mm
08:00 PM 36.8°F2.7°C 29.6°F-1.3°C 75% Calm Calm -- 30.35 in1027.8 mb - 0.00 in0.0 mm 0.00 in0.0 mm
08:10 PM 37.0°F2.8°C 29.5°F-1.4°C 74% Calm Calm 1.2 mph1.9 kmh 30.35 in1027.8 mb - 0.00 in0.0 mm 0.00 in0.0 mm
08:20 PM 37.1°F2.8°C 29.6°F-1.3°C 74% Calm Calm -- 30.35 in1027.8 mb - 0.00 in0.0 mm 0.00 in0.0 mm
08:30 PM 36.4°F2.4°C 29.2°F-1.6°C 75% Calm Calm -- 30.35 in1027.8 mb - 0.00 in0.0 mm 0.00 in0.0 mm
08:40 PM 36.4°F2.4°C 29.2°F-1.6°C 75% Calm Calm -- 30.36 in1028.1 mb - 0.00 in0.0 mm 0.00 in0.0 mm
08:50 PM 36.3°F2.4°C 29.1°F-1.6°C 75% Calm Calm -- 30.36 in1028.1 mb - 0.00 in0.0 mm 0.00 in0.0 mm
09:00 PM 36.0°F2.2°C 28.8°F-1.8°C 75% Calm Calm -- 30.36 in1028.1 mb - 0.00 in0.0 mm 0.00 in0.0 mm
09:10 PM 35.7°F2.1°C 28.6°F-1.9°C 75% Calm Calm 1.2 mph1.9 kmh 30.36 in1028.1 mb - 0.00 in0.0 mm 0.00 in0.0 mm
09:20 PM 35.2°F1.8°C 28.7°F-1.8°C 77% Calm Calm -- 30.36 in1028.1 mb - 0.00 in0.0 mm 0.00 in0.0 mm
09:30 PM 35.1°F1.7°C 28.6°F-1.9°C 77% Calm Calm -- 30.37 in1028.4 mb - 0.00 in0.0 mm 0.00 in0.0 mm
09:40 PM 35.2°F1.8°C 28.4°F-2.0°C 76% Calm Calm -- 30.37 in1028.4 mb - 0.00 in0.0 mm 0.00 in0.0 mm
09:50 PM 35.5°F1.9°C 28.4°F-2.0°C 75% Calm Calm -- 30.37 in1028.4 mb - 0.00 in0.0 mm 0.00 in0.0 mm
10:00 PM 35.2°F1.8°C 28.4°F-2.0°C 76% Calm Calm 1.2 mph1.9 kmh 30.37 in1028.4 mb - 0.00 in0.0 mm 0.00 in0.0 mm
10:10 PM 35.4°F1.9°C 28.6°F-1.9°C 76% Calm Calm -- 30.37 in1028.4 mb - 0.00 in0.0 mm 0.00 in0.0 mm
10:20 PM 34.7°F1.5°C 28.2°F-2.1°C 77% Calm Calm -- 30.37 in1028.4 mb - 0.00 in0.0 mm 0.00 in0.0 mm
10:30 PM 34.7°F1.5°C 28.2°F-2.1°C 77% Calm Calm -- 30.37 in1028.4 mb - 0.00 in0.0 mm 0.00 in0.0 mm
10:40 PM 34.5°F1.4°C 28.0°F-2.2°C 77% Calm Calm -- 30.37 in1028.4 mb - 0.00 in0.0 mm 0.00 in0.0 mm
10:50 PM 35.1°F1.7°C 28.3°F-2.1°C 76% Calm Calm -- 30.37 in1028.4 mb - 0.00 in0.0 mm 0.00 in0.0 mm
11:00 PM 34.7°F1.5°C 28.2°F-2.1°C 77% Calm Calm -- 30.37 in1028.4 mb - 0.00 in0.0 mm 0.00 in0.0 mm
11:10 PM 34.9°F1.6°C 28.4°F-2.0°C 77% Calm Calm -- 30.37 in1028.4 mb - 0.00 in0.0 mm 0.00 in0.0 mm
11:20 PM 34.5°F1.4°C 28.0°F-2.2°C 77% Calm Calm -- 30.37 in1028.4 mb - 0.00 in0.0 mm 0.00 in0.0 mm